createdAt,value
2023-04-28T00:02:02.253Z,99963.19
2023-04-28T00:04:29.854Z,99957.81
2023-04-28T00:06:56.946Z,99956.78
2023-04-28T00:09:24.331Z,99953.28
2023-04-28T00:11:51.198Z,99946.97
2023-04-28T00:14:18.685Z,99951.06
2023-04-28T00:16:46.268Z,99947.47
2023-04-28T00:19:13.577Z,99946.66
2023-04-28T00:21:40.852Z,99945.47
2023-04-28T00:24:08.100Z,99953.91
2023-04-28T00:26:35.018Z,99950.88
2023-04-28T00:29:02.368Z,99943.63
2023-04-28T00:31:29.419Z,99948.72
2023-04-28T00:33:56.759Z,99946.25
2023-04-28T00:36:25.761Z,99944.72
2023-04-28T00:38:55.266Z,99932.66
2023-04-28T00:41:22.129Z,99935.41
2023-04-28T00:43:49.924Z,99931.75
2023-04-28T00:46:25.453Z,99933.41
2023-04-28T00:48:53.249Z,99938.22
2023-04-28T00:51:21.193Z,99930.97
2023-04-28T00:53:48.365Z,99929.53
2023-04-28T00:56:15.711Z,99928.69
2023-04-28T00:58:45.465Z,99927.28
2023-04-28T01:01:12.408Z,99923.31
2023-04-28T01:03:41.157Z,99927.28
2023-04-28T01:06:09.856Z,99932.84
2023-04-28T01:08:39.132Z,99932.84
2023-04-28T01:11:14.256Z,99933.81
2023-04-28T01:14:00.892Z,99925.78
2023-04-28T01:16:32.835Z,99930.22
2023-04-28T01:19:01.152Z,99926.25
2023-04-28T01:21:32.956Z,99928.41
2023-04-28T01:24:06.092Z,99928.38
2023-04-28T01:26:33.044Z,99925.66
2023-04-28T01:29:01.745Z,99920.34
2023-04-28T01:31:31.186Z,99924.59
2023-04-28T01:33:58.789Z,99908.53
2023-04-28T01:36:27.510Z,99914.66
2023-04-28T01:38:55.215Z,99914.50
2023-04-28T01:41:22.715Z,99915.81
2023-04-28T01:43:49.868Z,99909.44
2023-04-28T01:46:16.729Z,99909.56
2023-04-28T01:48:44.281Z,99907.69
2023-04-28T01:51:12.860Z,99910.56
2023-04-28T01:53:40.316Z,99919.91
2023-04-28T01:56:07.743Z,99909.78
2023-04-28T01:58:35.610Z,99914.94
2023-04-28T02:01:03.864Z,99908.28
2023-04-28T02:03:31.487Z,99915.19
2023-04-28T02:06:00.945Z,99907.72
2023-04-28T02:08:28.096Z,99911.41
2023-04-28T02:10:54.952Z,99908.88
2023-04-28T02:13:22.084Z,99910.84
2023-04-28T02:15:53.305Z,99917.38
2023-04-28T02:18:21.917Z,99911.13
2023-04-28T02:20:48.710Z,99912.63
2023-04-28T02:23:16.044Z,99903.97
2023-04-28T02:25:43.086Z,99904.69
2023-04-28T02:28:13.292Z,99908.47
2023-04-28T02:30:40.123Z,99904.25
2023-04-28T02:33:10.346Z,99908.38
2023-04-28T02:35:37.405Z,99903.84
2023-04-28T02:38:04.707Z,99905.66
2023-04-28T02:40:34.337Z,99899.44
2023-04-28T02:43:01.612Z,99906.69
2023-04-28T02:45:28.544Z,99907.66
2023-04-28T02:47:55.986Z,99908.75
2023-04-28T02:50:23.056Z,99906.59
2023-04-28T02:52:50.205Z,99910.56
2023-04-28T02:55:24.156Z,99905.19
2023-04-28T02:57:53.199Z,99901.50
2023-04-28T03:00:20.247Z,99896.38
2023-04-28T03:02:49.948Z,99899.88
2023-04-28T03:05:19.400Z,99893.91
2023-04-28T03:07:47.065Z,99894.69
2023-04-28T03:10:14.022Z,99897.03
2023-04-28T03:12:41.726Z,99888.75
2023-04-28T03:15:09.270Z,99886.38
2023-04-28T03:17:41.899Z,99886.75
2023-04-28T03:20:09.460Z,99880.41
2023-04-28T03:22:37.042Z,99882.75
2023-04-28T03:25:05.587Z,99873.03
2023-04-28T03:27:37.353Z,99875.97
2023-04-28T03:30:06.411Z,99880.13
2023-04-28T03:32:33.916Z,99878.03
2023-04-28T03:35:01.026Z,99874.84
2023-04-28T03:37:30.326Z,99874.84
2023-04-28T03:39:57.365Z,99868.13
2023-04-28T03:42:26.361Z,99878.31
2023-04-28T03:45:16.174Z,99874.25
2023-04-28T03:47:43.646Z,99878.22
2023-04-28T03:50:10.842Z,99877.19
2023-04-28T03:52:38.342Z,99886.91
2023-04-28T03:55:07.250Z,99873.31
2023-04-28T03:57:34.713Z,99881.94
2023-04-28T04:00:02.180Z,99878.81
2023-04-28T04:02:32.043Z,99878.63
2023-04-28T04:05:00.149Z,99883.91
2023-04-28T04:07:27.788Z,99889.38
2023-04-28T04:09:54.842Z,99895.81
2023-04-28T04:12:22.043Z,99888.25
2023-04-28T04:14:49.107Z,99885.78
2023-04-28T04:17:18.671Z,99883.75
2023-04-28T04:19:45.876Z,99886.94
2023-04-28T04:22:13.272Z,99880.91
2023-04-28T04:24:40.279Z,99885.53
2023-04-28T04:27:07.837Z,99884.44
2023-04-28T04:29:38.343Z,99886.03
2023-04-28T04:32:13.997Z,99881.88
2023-04-28T04:34:42.573Z,99883.94
2023-04-28T04:37:11.335Z,99886.34
2023-04-28T04:39:48.096Z,99876.34
2023-04-28T04:42:23.884Z,99871.94
2023-04-28T04:45:12.534Z,99875.28
2023-04-28T04:47:40.342Z,99870.97
2023-04-28T04:50:07.714Z,99873.63
2023-04-28T04:52:34.861Z,99872.38
2023-04-28T04:55:02.346Z,99859.72
2023-04-28T04:57:30.419Z,99872.34
2023-04-28T05:00:10.353Z,99866.94
2023-04-28T05:02:38.182Z,99868.47
2023-04-28T05:05:19.564Z,99874.59
2023-04-28T05:07:51.328Z,99875.13
2023-04-28T05:10:18.279Z,99860.16
2023-04-28T05:12:48.808Z,99865.47
2023-04-28T05:15:17.871Z,99871.53
2023-04-28T05:17:59.698Z,99872.09
2023-04-28T05:20:26.700Z,99876.19
2023-04-28T05:22:53.829Z,99872.94
2023-04-28T05:25:20.904Z,99872.47
2023-04-28T05:27:48.098Z,99879.25
2023-04-28T05:30:15.969Z,99877.75
2023-04-28T05:32:43.309Z,99868.69
2023-04-28T05:35:10.314Z,99866.59
2023-04-28T05:37:38.246Z,99867.22
2023-04-28T05:40:05.519Z,99866.06
2023-04-28T05:42:33.654Z,99866.03
2023-04-28T05:45:03.283Z,99861.94
2023-04-28T05:47:31.423Z,99863.72
2023-04-28T05:49:58.574Z,99864.63
2023-04-28T05:52:26.172Z,99871.59
2023-04-28T05:54:53.392Z,99872.03
2023-04-28T05:57:23.620Z,99870.69
2023-04-28T05:59:50.721Z,99865.41
2023-04-28T06:02:19.048Z,99876.91
2023-04-28T06:04:47.926Z,99868.63
2023-04-28T06:07:17.614Z,99871.44
2023-04-28T06:09:45.084Z,99874.34
2023-04-28T06:12:12.329Z,99862.59
2023-04-28T06:14:40.767Z,99864.22
2023-04-28T06:17:08.745Z,99865.88
2023-04-28T06:19:35.791Z,99861.13
2023-04-28T06:22:05.585Z,99860.31
2023-04-28T06:24:34.898Z,99857.25
2023-04-28T06:27:06.580Z,99866.03
2023-04-28T06:29:38.287Z,99857.22
2023-04-28T06:32:05.970Z,99863.09
2023-04-28T06:34:32.993Z,99860.84
2023-04-28T06:37:00.669Z,99862.72
2023-04-28T06:39:27.611Z,99863.75
2023-04-28T06:41:54.823Z,99865.09
2023-04-28T06:44:23.460Z,99854.06
2023-04-28T06:46:50.819Z,99856.13
2023-04-28T06:49:17.673Z,99848.47
2023-04-28T06:51:45.554Z,99851.63
2023-04-28T06:54:12.790Z,99844.44
2023-04-28T06:56:44.212Z,99838.44
2023-04-28T06:59:11.372Z,99830.28
2023-04-28T07:01:38.662Z,99836.66
2023-04-28T07:04:08.269Z,99832.22
2023-04-28T07:06:35.917Z,99828.13
2023-04-28T07:09:03.005Z,99824.69
2023-04-28T07:11:30.173Z,99833.72
2023-04-28T07:13:57.076Z,99821.34
2023-04-28T07:16:26.899Z,99813.63
2023-04-28T07:18:56.346Z,99814.16
2023-04-28T07:21:23.609Z,99814.00
2023-04-28T07:23:50.496Z,99817.06
2023-04-28T07:26:17.611Z,99828.50
2023-04-28T07:28:44.609Z,99837.38
2023-04-28T07:31:11.923Z,99837.50
2023-04-28T07:33:41.527Z,99840.06
2023-04-28T07:36:09.146Z,99832.34
2023-04-28T07:38:38.361Z,99830.06
2023-04-28T07:41:07.529Z,99834.72
2023-04-28T07:43:36.852Z,99827.63
2023-04-28T07:46:04.224Z,99834.31
2023-04-28T07:48:32.560Z,99820.69
2023-04-28T07:51:33.023Z,99829.69
2023-04-28T07:54:02.010Z,99821.41
2023-04-28T07:56:30.135Z,99824.88
2023-04-28T07:58:57.166Z,99833.91
2023-04-28T08:02:05.709Z,99844.75
2023-04-28T08:04:41.557Z,99840.16
2023-04-28T08:07:11.097Z,99838.31
2023-04-28T08:09:38.093Z,99832.59
2023-04-28T08:12:07.828Z,99824.84
2023-04-28T08:14:34.726Z,99821.06
2023-04-28T08:17:04.537Z,99839.41
2023-04-28T08:19:31.549Z,99829.00
2023-04-28T08:22:00.142Z,99820.75
2023-04-28T08:24:30.302Z,99816.63
2023-04-28T08:26:57.887Z,99813.13
2023-04-28T08:29:26.148Z,99816.25
2023-04-28T08:31:57.914Z,99800.34
2023-04-28T08:34:24.964Z,99789.38
2023-04-28T08:36:55.053Z,99791.28
2023-04-28T08:39:23.647Z,99788.97
2023-04-28T08:41:51.655Z,99778.75
2023-04-28T08:44:19.004Z,99778.84
2023-04-28T08:46:47.278Z,99790.06
2023-04-28T08:49:18.424Z,99776.13
2023-04-28T08:51:47.919Z,99771.25
2023-04-28T08:54:26.050Z,99776.69
2023-04-28T08:56:55.698Z,99768.19
2023-04-28T08:59:22.571Z,99765.63
2023-04-28T09:01:50.849Z,99753.13
2023-04-28T09:04:21.298Z,99760.56
2023-04-28T09:06:49.125Z,99763.13
2023-04-28T09:09:26.668Z,99755.50
2023-04-28T09:11:59.857Z,99756.59
2023-04-28T09:14:30.423Z,99761.34
2023-04-28T09:16:59.382Z,99763.75
2023-04-28T09:19:34.505Z,99753.84
2023-04-28T09:22:24.002Z,99750.88
2023-04-28T09:24:53.465Z,99746.28
2023-04-28T09:27:26.588Z,99739.00
2023-04-28T09:29:54.305Z,99730.75
2023-04-28T09:32:22.516Z,99737.94
2023-04-28T09:34:50.835Z,99733.19
2023-04-28T09:37:20.083Z,99729.75
2023-04-28T09:39:49.526Z,99719.34
2023-04-28T09:42:35.187Z,99718.38
2023-04-28T09:45:03.475Z,99704.31
2023-04-28T09:47:35.054Z,99699.38
2023-04-28T09:50:06.643Z,99692.13
2023-04-28T09:52:37.708Z,99691.75
2023-04-28T09:55:05.700Z,99681.66
2023-04-28T09:57:34.241Z,99690.53
2023-04-28T10:00:02.369Z,99690.56
2023-04-28T10:02:43.274Z,99675.78
2023-04-28T10:05:11.914Z,99673.44
2023-04-28T10:07:40.631Z,99665.38
2023-04-28T10:10:08.137Z,99665.81
2023-04-28T10:12:39.221Z,99670.22
2023-04-28T10:15:07.848Z,99670.91
2023-04-28T10:17:37.002Z,99661.56
2023-04-28T10:20:05.368Z,99655.84
2023-04-28T10:22:51.825Z,99643.66
2023-04-28T10:25:27.825Z,99648.97
2023-04-28T10:27:55.073Z,99653.63
2023-04-28T10:30:28.281Z,99646.16
2023-04-28T10:33:09.584Z,99641.66
2023-04-28T10:35:40.955Z,99641.72
2023-04-28T10:38:12.303Z,99636.88
2023-04-28T10:40:40.242Z,99641.31
2023-04-28T10:43:14.280Z,99639.69
2023-04-28T10:45:56.039Z,99633.72
2023-04-28T10:48:44.261Z,99640.00
2023-04-28T10:51:13.024Z,99622.19
2023-04-28T10:53:48.135Z,99628.00
2023-04-28T10:56:21.731Z,99636.88
2023-04-28T10:58:52.363Z,99632.56
2023-04-28T11:01:22.464Z,99615.56
2023-04-28T11:04:00.713Z,99618.00
2023-04-28T11:06:29.140Z,99609.44
2023-04-28T11:08:57.968Z,99607.09
2023-04-28T11:11:27.460Z,99601.16
2023-04-28T11:13:55.650Z,99607.56
2023-04-28T11:16:24.601Z,99599.72
2023-04-28T11:18:56.344Z,99594.53
2023-04-28T11:21:24.361Z,99578.22
2023-04-28T11:23:51.918Z,99577.50
2023-04-28T11:26:24.002Z,99570.38
2023-04-28T11:28:52.453Z,99575.84
2023-04-28T11:31:20.872Z,99568.88
2023-04-28T11:33:56.846Z,99570.53
2023-04-28T11:36:28.218Z,99552.88
2023-04-28T11:38:57.234Z,99562.31
2023-04-28T11:41:24.512Z,99544.59
2023-04-28T11:43:51.720Z,99558.69
2023-04-28T11:46:21.854Z,99535.75
2023-04-28T11:49:00.599Z,99532.91
2023-04-28T11:51:35.190Z,99524.47
2023-04-28T11:54:03.692Z,99532.03
2023-04-28T11:56:31.017Z,99532.63
2023-04-28T11:59:05.541Z,99532.97
2023-04-28T12:01:33.226Z,99524.91
2023-04-28T12:04:00.759Z,99529.19
2023-04-28T12:06:29.987Z,99516.25
2023-04-28T12:08:58.091Z,99517.75
2023-04-28T12:11:25.913Z,99516.78
2023-04-28T12:14:11.211Z,99531.72
2023-04-28T12:16:44.536Z,99539.41
2023-04-28T12:19:12.674Z,99536.31
2023-04-28T12:21:40.155Z,99544.47
2023-04-28T12:24:17.496Z,99541.63
2023-04-28T12:26:44.648Z,99533.13
2023-04-28T12:29:34.635Z,99531.97
2023-04-28T12:32:01.614Z,99525.13
2023-04-28T12:34:29.641Z,99535.28
2023-04-28T12:36:56.528Z,99540.16
2023-04-28T12:39:24.799Z,99549.75
2023-04-28T12:41:51.698Z,99519.16
2023-04-28T12:44:22.594Z,99519.72
2023-04-28T12:46:49.449Z,99521.44
2023-04-28T12:49:19.669Z,99522.28
2023-04-28T12:51:48.881Z,99529.13
2023-04-28T12:54:16.230Z,99521.31
2023-04-28T12:56:43.269Z,99525.56
2023-04-28T12:59:10.985Z,99521.91
2023-04-28T13:01:38.265Z,99517.81
2023-04-28T13:04:09.898Z,99527.47
2023-04-28T13:06:37.241Z,99524.94
2023-04-28T13:09:07.458Z,99511.00
2023-04-28T13:11:34.397Z,99510.56
2023-04-28T13:14:02.153Z,99509.09
2023-04-28T13:16:29.458Z,99509.41
2023-04-28T13:18:57.838Z,99514.28
2023-04-28T13:21:25.915Z,99506.63
2023-04-28T13:23:54.077Z,99512.59
2023-04-28T13:26:24.219Z,99510.38
2023-04-28T13:28:52.392Z,99522.75
2023-04-28T13:31:19.958Z,99517.97
2023-04-28T13:33:47.756Z,99502.19
2023-04-28T13:36:14.700Z,99508.50
2023-04-28T13:38:41.960Z,99507.03
2023-04-28T13:41:11.383Z,99510.59
2023-04-28T13:43:38.594Z,99511.81
2023-04-28T13:46:09.250Z,99505.84
2023-04-28T13:48:36.832Z,99498.22
2023-04-28T13:51:05.225Z,99496.16
2023-04-28T13:53:33.266Z,99493.94
2023-04-28T13:56:00.250Z,99494.25
2023-04-28T13:58:28.953Z,99501.19
2023-04-28T14:00:57.273Z,99500.06
2023-04-28T14:03:25.005Z,99497.03
2023-04-28T14:05:52.766Z,99492.25
2023-04-28T14:08:21.029Z,99491.13
2023-04-28T14:10:50.821Z,99505.13
2023-04-28T14:13:18.705Z,99499.91
2023-04-28T14:15:57.856Z,99504.94
2023-04-28T14:18:28.588Z,99497.94
2023-04-28T14:20:55.819Z,99503.75
2023-04-28T14:23:23.510Z,99497.59
2023-04-28T14:25:55.244Z,99499.47
2023-04-28T14:28:23.040Z,99493.94
2023-04-28T14:30:52.555Z,99498.63
2023-04-28T14:33:19.984Z,99497.59
2023-04-28T14:35:47.339Z,99493.75
2023-04-28T14:38:14.522Z,99497.63
2023-04-28T14:40:43.084Z,99485.38
2023-04-28T14:43:10.487Z,99488.97
2023-04-28T14:45:39.749Z,99476.53
2023-04-28T14:48:10.677Z,99472.00
2023-04-28T14:50:37.742Z,99457.97
2023-04-28T14:53:08.356Z,99455.47
2023-04-28T14:55:35.747Z,99454.44
2023-04-28T14:58:03.144Z,99438.09
2023-04-28T15:00:32.649Z,99418.38
2023-04-28T15:03:00.324Z,99422.09
2023-04-28T15:05:27.371Z,99416.88
2023-04-28T15:07:54.816Z,99423.38
2023-04-28T15:10:21.784Z,99425.75
2023-04-28T15:12:49.556Z,99441.94
2023-04-28T15:15:16.898Z,99454.63
2023-04-28T15:17:46.634Z,99458.16
2023-04-28T15:20:15.906Z,99462.66
2023-04-28T15:22:45.854Z,99460.63
2023-04-28T15:25:17.404Z,99454.84
2023-04-28T15:27:44.997Z,99452.19
2023-04-28T15:30:12.165Z,99454.41
2023-04-28T15:32:39.418Z,99451.56
2023-04-28T15:35:06.709Z,99442.66
2023-04-28T15:37:36.963Z,99443.94
2023-04-28T15:40:04.924Z,99444.13
2023-04-28T15:42:34.828Z,99438.75
2023-04-28T15:45:04.386Z,99439.88
2023-04-28T15:47:33.187Z,99435.25
2023-04-28T15:50:00.239Z,99428.94
2023-04-28T15:52:28.001Z,99425.97
2023-04-28T15:54:55.735Z,99425.44
2023-04-28T15:57:23.009Z,99422.09
2023-04-28T15:59:52.117Z,99421.00
2023-04-28T16:02:21.219Z,99434.06
2023-04-28T16:04:50.661Z,99435.91
2023-04-28T16:07:20.517Z,99437.22
2023-04-28T16:09:47.536Z,99432.94
2023-04-28T16:12:14.827Z,99438.16
2023-04-28T16:14:41.778Z,99436.63
2023-04-28T16:17:09.048Z,99433.63
2023-04-28T16:19:38.270Z,99430.28
2023-04-28T16:22:05.473Z,99431.19
2023-04-28T16:24:32.859Z,99428.75
2023-04-28T16:27:00.943Z,99422.22
2023-04-28T16:29:28.030Z,99429.47
2023-04-28T16:31:55.301Z,99429.22
2023-04-28T16:34:22.212Z,99429.78
2023-04-28T16:36:49.567Z,99423.41
2023-04-28T16:39:16.644Z,99422.22
2023-04-28T16:41:44.057Z,99421.22
2023-04-28T16:44:11.268Z,99412.63
2023-04-28T16:46:39.645Z,99426.78
2023-04-28T16:49:06.578Z,99421.75
2023-04-28T16:51:36.378Z,99430.22
2023-04-28T16:54:03.343Z,99428.09
2023-04-28T16:56:31.044Z,99424.72
2023-04-28T16:59:00.246Z,99418.75
2023-04-28T17:01:31.673Z,99411.66
2023-04-28T17:04:06.843Z,99412.78
2023-04-28T17:06:34.205Z,99413.88
2023-04-28T17:09:01.127Z,99404.78
2023-04-28T17:11:30.736Z,99409.41
2023-04-28T17:13:58.699Z,99415.31
2023-04-28T17:16:28.235Z,99413.94
2023-04-28T17:18:55.267Z,99410.44
2023-04-28T17:21:22.532Z,99407.03
2023-04-28T17:23:49.640Z,99397.00
2023-04-28T17:26:17.551Z,99397.34
2023-04-28T17:28:44.706Z,99392.88
2023-04-28T17:31:13.560Z,99403.44
2023-04-28T17:33:40.556Z,99401.00
2023-04-28T17:36:07.930Z,99403.56
2023-04-28T17:38:38.793Z,99396.84
2023-04-28T17:41:06.326Z,99402.78
2023-04-28T17:43:33.963Z,99393.81
2023-04-28T17:46:01.422Z,99403.44
2023-04-28T17:48:28.488Z,99397.69
2023-04-28T17:50:55.941Z,99401.94
2023-04-28T17:53:23.283Z,99386.03
2023-04-28T17:55:50.995Z,99398.72
2023-04-28T17:58:18.548Z,99391.91
2023-04-28T18:00:45.940Z,99387.13
2023-04-28T18:03:12.991Z,99386.34
2023-04-28T18:05:40.475Z,99383.59
2023-04-28T18:08:07.411Z,99377.59
2023-04-28T18:10:34.706Z,99382.75
2023-04-28T18:13:02.803Z,99383.84
2023-04-28T18:15:31.830Z,99370.69
2023-04-28T18:17:59.129Z,99360.69
2023-04-28T18:20:26.384Z,99356.41
2023-04-28T18:22:57.590Z,99372.13
2023-04-28T18:25:27.541Z,99384.91
2023-04-28T18:27:54.473Z,99389.50
2023-04-28T18:30:21.994Z,99396.38
2023-04-28T18:32:51.210Z,99390.06
2023-04-28T18:35:19.987Z,99384.28
2023-04-28T18:37:48.610Z,99379.81
2023-04-28T18:40:18.736Z,99374.28
2023-04-28T18:42:46.405Z,99382.38
2023-04-28T18:45:15.076Z,99390.94
2023-04-28T18:47:42.622Z,99383.13
2023-04-28T18:50:11.841Z,99378.34
2023-04-28T18:52:39.515Z,99377.38
2023-04-28T18:55:08.004Z,99378.69
2023-04-28T18:57:34.938Z,99379.72
2023-04-28T19:00:02.516Z,99381.78
2023-04-28T19:02:29.551Z,99374.72
2023-04-28T19:04:57.371Z,99389.16
2023-04-28T19:07:24.778Z,99379.84
2023-04-28T19:09:53.098Z,99388.38
2023-04-28T19:12:21.088Z,99395.00
2023-04-28T19:14:49.116Z,99396.28
2023-04-28T19:17:18.154Z,99396.09
2023-04-28T19:19:45.962Z,99384.00
2023-04-28T19:22:49.192Z,99379.00
2023-04-28T19:25:19.396Z,99379.75
2023-04-28T19:27:49.756Z,99382.53
2023-04-28T19:30:19.921Z,99381.78
2023-04-28T19:32:49.561Z,99373.44
2023-04-28T19:35:20.235Z,99383.28
2023-04-28T19:37:49.916Z,99390.66
2023-04-28T19:40:18.082Z,99393.97
2023-04-28T19:42:47.742Z,99395.22
2023-04-28T19:45:17.967Z,99396.00
2023-04-28T19:47:45.642Z,99395.44
2023-04-28T19:50:16.585Z,99387.34
2023-04-28T19:52:45.900Z,99392.13
2023-04-28T19:55:20.366Z,99393.31
2023-04-28T19:57:48.467Z,99384.75
2023-04-28T20:00:16.667Z,99386.66
2023-04-28T20:02:44.694Z,99389.22
2023-04-28T20:05:14.852Z,99390.53
2023-04-28T20:07:43.011Z,99383.28
2023-04-28T20:10:12.053Z,99378.78
2023-04-28T20:12:40.245Z,99383.28
2023-04-28T20:15:09.347Z,99383.81
2023-04-28T20:17:37.279Z,99387.44
2023-04-28T20:20:06.007Z,99379.66
2023-04-28T20:22:33.681Z,99373.72
2023-04-28T20:25:06.232Z,99376.81
2023-04-28T20:27:35.827Z,99380.09
2023-04-28T20:30:04.165Z,99384.94
2023-04-28T20:32:31.460Z,99386.41
2023-04-28T20:34:58.878Z,99369.44
2023-04-28T20:37:26.506Z,99370.72
2023-04-28T20:39:53.815Z,99369.97
2023-04-28T20:42:20.840Z,99365.19
2023-04-28T20:44:48.305Z,99368.16
2023-04-28T20:47:15.260Z,99363.75
2023-04-28T20:49:42.502Z,99366.53
2023-04-28T20:52:09.523Z,99362.47
2023-04-28T20:54:36.929Z,99367.28
2023-04-28T20:57:04.862Z,99365.06
2023-04-28T20:59:32.949Z,99373.91
2023-04-28T21:02:00.335Z,99367.63
2023-04-28T21:04:28.414Z,99369.84
2023-04-28T21:06:55.754Z,99368.03
2023-04-28T21:09:25.678Z,99370.63
2023-04-28T21:11:52.903Z,99376.34
2023-04-28T21:14:20.327Z,99375.63
2023-04-28T21:16:47.915Z,99373.44
2023-04-28T21:19:15.147Z,99372.53
2023-04-28T21:21:42.031Z,99369.00
2023-04-28T21:24:12.696Z,99367.28
2023-04-28T21:26:39.844Z,99363.56
2023-04-28T21:29:08.542Z,99358.53
2023-04-28T21:31:35.534Z,99358.53
2023-04-28T21:34:02.848Z,99362.81
2023-04-28T21:36:30.136Z,99352.56
2023-04-28T21:38:57.731Z,99364.22
2023-04-28T21:41:25.470Z,99361.97
2023-04-28T21:43:52.606Z,99361.00
2023-04-28T21:46:19.765Z,99365.28
2023-04-28T21:48:47.098Z,99368.59
2023-04-28T21:51:14.780Z,99367.31
2023-04-28T21:53:42.293Z,99362.31
2023-04-28T21:56:09.354Z,99367.53
2023-04-28T21:58:36.594Z,99358.56
2023-04-28T22:01:04.533Z,99348.53
2023-04-28T22:03:35.196Z,99340.75
2023-04-28T22:06:02.606Z,99346.84
2023-04-28T22:08:30.796Z,99351.44
2023-04-28T22:10:58.199Z,99355.50
2023-04-28T22:13:25.389Z,99352.53
2023-04-28T22:15:56.170Z,99351.75
2023-04-28T22:18:26.423Z,99348.25
2023-04-28T22:20:53.758Z,99352.31
2023-04-28T22:23:21.086Z,99350.28
2023-04-28T22:25:48.343Z,99349.00
2023-04-28T22:28:15.630Z,99356.25
2023-04-28T22:30:42.540Z,99359.44
2023-04-28T22:33:12.221Z,99350.38
2023-04-28T22:35:41.798Z,99352.41
2023-04-28T22:38:08.986Z,99361.47
2023-04-28T22:40:35.923Z,99364.44
2023-04-28T22:43:03.304Z,99363.72
2023-04-28T22:45:30.151Z,99368.94
2023-04-28T22:47:57.698Z,99362.84
2023-04-28T22:50:28.767Z,99360.81
2023-04-28T22:52:55.971Z,99360.06
2023-04-28T22:55:25.192Z,99350.06
2023-04-28T22:57:52.594Z,99348.53
2023-04-28T23:00:19.516Z,99360.19
2023-04-28T23:02:46.786Z,99356.66
2023-04-28T23:05:13.868Z,99357.19
2023-04-28T23:07:41.147Z,99356.13
2023-04-28T23:10:08.377Z,99348.88
2023-04-28T23:12:35.705Z,99342.56
2023-04-28T23:15:06.169Z,99341.09
2023-04-28T23:17:33.389Z,99342.91
2023-04-28T23:20:02.831Z,99342.19
2023-04-28T23:22:30.087Z,99335.13
2023-04-28T23:24:59.304Z,99337.34
2023-04-28T23:27:26.829Z,99328.09
2023-04-28T23:29:53.903Z,99321.25
2023-04-28T23:32:23.604Z,99321.06
2023-04-28T23:34:52.988Z,99319.56
2023-04-28T23:37:20.140Z,99321.78
2023-04-28T23:39:47.004Z,99318.47
2023-04-28T23:42:16.597Z,99320.53
2023-04-28T23:44:43.503Z,99303.13
2023-04-28T23:47:14.502Z,99312.94
2023-04-28T23:49:42.417Z,99312.94
2023-04-28T23:52:09.744Z,99310.91
2023-04-28T23:54:37.130Z,99308.69
2023-04-28T23:57:04.726Z,99305.16
2023-04-28T23:59:32.368Z,99312.19
